Time;durP1;ratioP1;P1;durP2;ratioP2;P2;SDS_P1;SDS_P2;PMS_P1;PMS_P2;Temp;Humidity;BMP_temperature;BMP_pressure;BME280_temperature;BME280_humidity;BME280_pressure;Samples;Min_cycle;Max_cycle;Signal;HPM_P1;HPM_P2
2023/11/20 00:00:13;;;;;;;12.20;2.50;;;11.90;99.90;;;;;;4169824;28;20041;-64
2023/11/20 00:02:14;;;;;;;3.90;1.20;;;11.90;99.90;;;;;;4180441;28;20057;-65
2023/11/20 00:04:14;;;;;;;8.93;1.60;;;12.00;99.90;;;;;;4158527;28;20072;-64
2023/11/20 00:06:15;;;;;;;9.95;2.10;;;12.00;99.90;;;;;;4173884;28;20481;-64
2023/11/20 00:08:15;;;;;;;10.23;2.00;;;12.00;99.90;;;;;;4164365;28;20032;-64
2023/11/20 00:10:16;;;;;;;6.55;1.60;;;12.00;99.90;;;;;;4174461;28;20109;-64
2023/11/20 00:12:16;;;;;;;4.70;1.63;;;12.00;99.90;;;;;;4165937;28;20047;-65
2023/11/20 00:14:17;;;;;;;7.30;1.75;;;12.00;99.90;;;;;;4146905;28;20039;-64
2023/11/20 00:16:18;;;;;;;6.05;1.65;;;12.00;99.90;;;;;;4172581;28;20020;-64
2023/11/20 00:18:19;;;;;;;6.80;1.40;;;12.00;99.90;;;;;;4175747;28;20036;-64
2023/11/20 00:20:19;;;;;;;10.63;2.25;;;12.00;99.90;;;;;;4171774;28;20043;-64
2023/11/20 00:22:20;;;;;;;6.97;2.00;;;12.00;99.90;;;;;;4168211;28;20043;-65
2023/11/20 00:24:21;;;;;;;10.15;2.42;;;12.00;99.90;;;;;;4175555;28;20481;-64
2023/11/20 00:26:21;;;;;;;9.70;2.17;;;12.00;99.90;;;;;;4159054;28;20120;-64
2023/11/20 00:28:22;;;;;;;7.80;2.20;;;12.00;99.90;;;;;;4177683;28;20120;-64
2023/11/20 00:30:23;;;;;;;7.63;1.50;;;12.00;99.90;;;;;;4171560;28;20421;-64
2023/11/20 00:32:25;;;;;;;12.10;1.80;;;12.00;99.90;;;;;;4151352;28;20029;-64
2023/11/20 00:34:26;;;;;;;10.85;1.98;;;12.00;99.90;;;;;;4173098;28;20039;-64
2023/11/20 00:36:27;;;;;;;7.22;2.05;;;12.00;99.90;;;;;;4176019;28;20457;-64
2023/11/20 00:38:27;;;;;;;10.30;2.22;;;12.10;99.90;;;;;;4157300;28;20397;-64
2023/11/20 00:40:28;;;;;;;8.85;1.70;;;12.00;99.90;;;;;;4175167;28;20040;-64
2023/11/20 00:42:29;;;;;;;7.75;2.08;;;12.00;99.90;;;;;;4184306;28;20029;-64
2023/11/20 00:44:29;;;;;;;9.63;2.17;;;12.10;99.90;;;;;;4175982;28;20040;-64
2023/11/20 00:46:30;;;;;;;7.38;2.38;;;12.10;99.90;;;;;;4170932;28;20115;-64
2023/11/20 00:48:31;;;;;;;10.85;2.33;;;12.10;99.90;;;;;;4170257;28;20300;-65
2023/11/20 00:50:32;;;;;;;8.90;2.17;;;12.10;99.90;;;;;;4175731;28;20044;-70
2023/11/20 00:52:35;;;;;;;7.55;2.00;;;12.10;99.90;;;;;;4177302;28;20036;-70
2023/11/20 00:54:36;;;;;;;8.27;2.13;;;12.10;99.90;;;;;;4174666;28;20087;-70
2023/11/20 00:56:36;;;;;;;8.13;2.15;;;12.10;99.90;;;;;;4172113;28;20396;-70
2023/11/20 00:58:37;;;;;;;5.90;1.88;;;12.10;99.90;;;;;;4186573;28;20033;-71
2023/11/20 01:00:38;;;;;;;9.05;2.05;;;12.10;99.90;;;;;;4178676;28;20033;-70
2023/11/20 01:02:39;;;;;;;17.08;3.00;;;12.10;99.90;;;;;;4178791;28;20465;-70
2023/11/20 01:04:40;;;;;;;7.57;1.80;;;12.10;99.90;;;;;;4165087;28;20043;-70
2023/11/20 01:06:40;;;;;;;7.03;2.20;;;12.10;99.90;;;;;;4176361;28;20087;-70
2023/11/20 01:08:41;;;;;;;8.45;1.85;;;12.10;99.90;;;;;;4178199;28;20033;-64
2023/11/20 01:10:42;;;;;;;9.32;1.98;;;12.10;99.90;;;;;;4178836;28;20060;-71
2023/11/20 01:12:43;;;;;;;6.10;2.00;;;12.10;99.90;;;;;;4179365;28;20033;-71
2023/11/20 01:14:46;;;;;;;7.75;1.92;;;12.10;99.90;;;;;;4180609;28;20052;-71
2023/11/20 01:16:47;;;;;;;7.18;1.95;;;12.10;99.90;;;;;;4158011;28;20084;-71
2023/11/20 01:18:48;;;;;;;10.32;2.40;;;12.10;99.90;;;;;;4163238;28;20033;-71
2023/11/20 01:20:48;;;;;;;7.70;1.83;;;12.10;99.90;;;;;;4158721;28;20033;-71
2023/11/20 01:22:49;;;;;;;7.03;1.60;;;12.10;99.90;;;;;;4178465;28;20036;-71
2023/11/20 01:24:50;;;;;;;9.30;1.90;;;12.10;99.90;;;;;;4174455;28;20540;-70
2023/11/20 01:26:53;;;;;;;7.70;1.48;;;12.10;99.90;;;;;;4175742;28;20485;-71
2023/11/20 01:28:54;;;;;;;7.30;1.73;;;12.10;99.90;;;;;;4177090;28;20032;-71
2023/11/20 01:30:55;;;;;;;6.20;2.38;;;12.20;99.90;;;;;;4191737;28;20071;-71
2023/11/20 01:32:55;;;;;;;9.10;1.50;;;12.20;99.90;;;;;;4179679;28;20473;-71
2023/11/20 01:34:57;;;;;;;9.18;1.73;;;12.10;99.90;;;;;;4178780;28;20386;-71
2023/11/20 01:36:58;;;;;;;4.40;1.17;;;12.10;99.90;;;;;;4160573;28;20038;-71
2023/11/20 01:38:58;;;;;;;8.43;1.52;;;12.20;99.90;;;;;;4160504;28;20038;-70
2023/11/20 01:40:59;;;;;;;14.02;2.28;;;12.20;99.90;;;;;;4177702;28;20433;-70
2023/11/20 01:43:01;;;;;;;8.68;2.17;;;12.20;99.90;;;;;;4171601;28;20049;-70
2023/11/20 01:45:02;;;;;;;7.38;2.10;;;12.10;99.90;;;;;;4178636;28;20041;-70
2023/11/20 01:47:04;;;;;;;5.43;2.08;;;12.10;99.90;;;;;;4180538;28;20043;-70
2023/11/20 01:49:07;;;;;;;5.00;1.73;;;12.10;99.90;;;;;;4164681;28;20373;-70
2023/11/20 01:51:08;;;;;;;;;;;12.20;99.90;;;;;;4179406;28;20048;-70
2023/11/20 01:53:09;;;;;;;3.72;1.30;;;12.10;99.90;;;;;;4178189;28;19909;-70
2023/11/20 01:55:13;;;;;;;6.63;1.80;;;12.10;99.90;;;;;;4172271;28;20046;-71
2023/11/20 01:57:13;;;;;;;5.43;1.40;;;12.20;99.90;;;;;;4175602;28;20033;-70
2023/11/20 01:59:16;;;;;;;4.18;1.42;;;12.10;99.90;;;;;;4177044;28;20056;-70
2023/11/20 02:01:17;;;;;;;9.05;2.50;;;12.20;99.90;;;;;;4195397;28;20126;-71
2023/11/20 02:03:19;;;;;;;7.03;1.73;;;12.20;99.90;;;;;;4171564;28;20045;-71
2023/11/20 02:05:20;;;;;;;6.35;1.88;;;12.20;99.90;;;;;;4163746;28;20599;-71
2023/11/20 02:07:21;;;;;;;10.95;2.20;;;12.20;99.90;;;;;;4170976;28;20036;-71
2023/11/20 02:09:22;;;;;;;8.15;2.40;;;12.10;99.90;;;;;;4173348;28;20386;-70
2023/11/20 02:11:26;;;;;;;9.45;2.05;;;12.10;99.90;;;;;;4173741;28;20037;-71
2023/11/20 02:13:27;;;;;;;6.20;2.00;;;12.10;99.90;;;;;;4176227;28;20143;-71
2023/11/20 02:15:28;;;;;;;10.68;2.35;;;12.20;99.90;;;;;;4181073;28;20119;-70
2023/11/20 02:17:29;;;;;;;7.47;1.88;;;12.10;99.90;;;;;;4196384;28;20044;-71
2023/11/20 02:19:29;;;;;;;7.47;2.08;;;12.20;99.90;;;;;;4165991;28;20052;-67
2023/11/20 02:21:30;;;;;;;13.70;1.90;;;12.20;99.90;;;;;;4176741;28;20052;-67
2023/11/20 02:23:31;;;;;;;12.88;2.38;;;12.20;99.90;;;;;;4176917;28;20025;-67
2023/11/20 02:25:32;;;;;;;6.68;1.60;;;12.20;99.90;;;;;;4176615;28;20491;-68
2023/11/20 02:27:54;;;;;;;9.25;2.03;;;12.20;99.90;;;;;;4181796;28;20376;-67
2023/11/20 02:29:56;;;;;;;11.13;2.35;;;12.20;99.90;;;;;;4170545;28;20037;-66
2023/11/20 02:31:57;;;;;;;8.40;1.80;;;12.20;99.90;;;;;;4177560;28;20346;-66
2023/11/20 02:34:00;;;;;;;7.85;2.17;;;12.20;99.90;;;;;;4178931;28;20045;-66
2023/11/20 02:36:03;;;;;;;7.00;1.98;;;12.20;99.90;;;;;;4174980;28;20040;-67
2023/11/20 02:38:04;;;;;;;11.07;2.17;;;12.20;99.90;;;;;;4178740;28;20457;-66
2023/11/20 02:40:06;;;;;;;6.18;2.05;;;12.20;99.90;;;;;;4168275;28;20037;-67
2023/11/20 02:42:06;;;;;;;13.52;2.70;;;12.20;99.90;;;;;;4166770;28;20044;-66
2023/11/20 02:44:08;;;;;;;10.35;2.30;;;12.20;99.90;;;;;;4173957;28;20478;-66
2023/11/20 02:46:09;;;;;;;7.33;1.80;;;12.10;99.90;;;;;;4166134;28;20037;-66
2023/11/20 02:48:09;;;;;;;9.57;2.35;;;12.10;99.90;;;;;;4173259;28;20052;-66
2023/11/20 02:50:10;;;;;;;8.00;2.28;;;12.10;99.90;;;;;;4170439;28;20440;-67
2023/11/20 02:52:11;;;;;;;13.88;2.38;;;12.10;99.90;;;;;;4173781;28;20033;-66
2023/11/20 02:54:11;;;;;;;7.60;2.00;;;12.10;99.90;;;;;;4172096;28;20057;-67
2023/11/20 02:56:12;;;;;;;16.88;2.92;;;12.10;99.90;;;;;;4176329;28;20049;-67
2023/11/20 02:58:12;;;;;;;10.30;2.30;;;12.10;99.90;;;;;;4176797;28;20048;-68
2023/11/20 03:00:13;;;;;;;10.65;2.40;;;12.10;99.90;;;;;;4173366;28;20045;-68
2023/11/20 03:02:14;;;;;;;9.57;2.13;;;12.10;99.90;;;;;;4175361;28;20091;-68
2023/11/20 03:04:15;;;;;;;8.88;1.92;;;12.10;99.90;;;;;;4179320;28;20069;-68
2023/11/20 03:06:15;;;;;;;9.52;2.45;;;12.10;99.90;;;;;;4175589;28;20041;-68
2023/11/20 03:08:16;;;;;;;14.85;2.60;;;12.00;99.90;;;;;;4184061;28;20503;-68
2023/11/20 03:10:18;;;;;;;11.40;2.35;;;12.00;99.90;;;;;;4190171;28;20107;-68
2023/11/20 03:12:19;;;;;;;12.82;2.40;;;12.00;99.90;;;;;;4170065;28;20090;-67
2023/11/20 03:14:19;;;;;;;12.20;2.78;;;12.00;99.90;;;;;;4175323;28;21576;-67
2023/11/20 03:16:21;;;;;;;11.85;2.60;;;12.00;99.90;;;;;;4175668;28;20052;-67
2023/11/20 03:18:21;;;;;;;8.77;2.35;;;12.00;99.90;;;;;;4173032;28;20060;-67
2023/11/20 03:20:22;;;;;;;8.35;2.30;;;12.00;99.90;;;;;;4163849;28;20033;-67
2023/11/20 03:22:22;;;;;;;8.40;2.08;;;12.00;99.90;;;;;;4173428;28;20037;-67
2023/11/20 03:24:23;;;;;;;13.60;2.65;;;12.00;99.90;;;;;;4176645;28;20115;-67
2023/11/20 03:26:25;;;;;;;10.70;2.45;;;12.00;99.90;;;;;;4175062;28;20370;-67
2023/11/20 03:28:25;;;;;;;10.82;2.67;;;12.00;99.90;;;;;;4183930;28;20522;-67
2023/11/20 03:30:27;;;;;;;11.50;2.33;;;11.90;99.90;;;;;;4168187;28;20040;-70
2023/11/20 03:32:28;;;;;;;7.95;2.05;;;11.90;99.90;;;;;;4176668;28;20098;-70
2023/11/20 03:34:28;;;;;;;9.77;2.50;;;12.00;99.90;;;;;;4175365;28;20435;-70
2023/11/20 03:36:30;;;;;;;12.52;2.95;;;12.00;99.90;;;;;;4176623;28;20388;-70
2023/11/20 03:38:31;;;;;;;15.68;3.08;;;12.00;99.90;;;;;;4144777;28;20036;-70
2023/11/20 03:40:32;;;;;;;13.32;3.00;;;11.90;99.90;;;;;;4146526;28;20037;-70
2023/11/20 03:42:36;;;;;;;8.90;2.47;;;11.90;99.90;;;;;;4159249;28;20025;-70
2023/11/20 03:44:37;;;;;;;11.45;2.75;;;12.00;99.90;;;;;;4171950;28;20029;-70
2023/11/20 03:46:37;;;;;;;6.07;2.03;;;12.00;99.90;;;;;;4165265;28;20109;-70
2023/11/20 03:48:38;;;;;;;9.05;2.25;;;11.90;99.90;;;;;;4168431;28;20508;-70
2023/11/20 03:50:38;;;;;;;13.23;3.25;;;12.00;99.90;;;;;;4155034;28;20403;-70
2023/11/20 03:52:39;;;;;;;10.57;2.40;;;11.90;99.90;;;;;;4169527;28;20291;-70
2023/11/20 03:54:41;;;;;;;12.27;2.78;;;11.90;99.90;;;;;;4159058;28;20041;-70
2023/11/20 03:56:41;;;;;;;8.30;2.37;;;11.90;99.90;;;;;;4169262;28;20065;-70
2023/11/20 03:58:45;;;;;;;12.40;2.95;;;11.90;99.90;;;;;;4167307;28;20025;-70
2023/11/20 04:00:46;;;;;;;10.80;2.45;;;11.90;99.90;;;;;;4154850;28;20033;-70
2023/11/20 04:02:46;;;;;;;12.00;2.58;;;11.80;99.90;;;;;;4173283;28;20098;-70
2023/11/20 04:04:47;;;;;;;12.23;2.30;;;11.80;99.90;;;;;;4176132;28;20123;-69
2023/11/20 04:06:48;;;;;;;12.50;2.95;;;11.80;99.90;;;;;;4170567;28;20041;-70
2023/11/20 04:08:48;;;;;;;10.13;2.90;;;11.80;99.90;;;;;;4164726;28;20024;-70
2023/11/20 04:10:49;;;;;;;8.43;2.45;;;11.80;99.90;;;;;;4152740;28;20104;-69
2023/11/20 04:12:49;;;;;;;14.35;3.08;;;11.80;99.90;;;;;;4152948;28;20037;-70
2023/11/20 04:14:50;;;;;;;13.75;2.80;;;11.80;99.90;;;;;;4161894;28;20112;-69
2023/11/20 04:16:51;;;;;;;12.02;2.50;;;11.80;99.90;;;;;;4169745;28;20034;-70
2023/11/20 04:18:52;;;;;;;12.68;2.58;;;11.80;99.90;;;;;;4172718;28;20041;-70
2023/11/20 04:20:53;;;;;;;10.68;2.03;;;11.80;99.90;;;;;;4170673;28;20425;-70
2023/11/20 04:22:54;;;;;;;10.57;2.85;;;11.80;99.90;;;;;;4159996;28;20073;-69
2023/11/20 04:24:55;;;;;;;11.85;2.75;;;11.70;99.90;;;;;;4169418;28;20041;-69
2023/11/20 04:26:56;;;;;;;13.05;1.98;;;11.80;99.90;;;;;;4172568;28;20098;-70
2023/11/20 04:28:56;;;;;;;9.15;2.10;;;11.80;99.90;;;;;;4171563;28;20049;-70
2023/11/20 04:30:58;;;;;;;7.80;2.13;;;11.80;99.90;;;;;;4170241;28;20503;-70
2023/11/20 04:32:59;;;;;;;8.30;1.87;;;11.80;99.90;;;;;;4190072;28;20592;-69
2023/11/20 04:34:59;;;;;;;7.90;2.40;;;11.80;99.90;;;;;;4171475;28;20276;-69
2023/11/20 04:37:00;;;;;;;7.63;2.40;;;11.80;99.90;;;;;;4175684;28;20060;-70
2023/11/20 04:39:01;;;;;;;9.55;2.00;;;11.80;99.90;;;;;;4162071;28;20040;-71
2023/11/20 04:41:03;;;;;;;12.40;2.55;;;11.80;99.90;;;;;;4166004;28;20041;-65
2023/11/20 04:43:04;;;;;;;6.88;1.98;;;11.90;99.90;;;;;;4166563;28;20676;-65
2023/11/20 04:45:05;;;;;;;5.75;1.65;;;11.80;99.90;;;;;;4177823;28;20435;-68
2023/11/20 04:47:06;;;;;;;7.93;1.75;;;11.80;99.90;;;;;;4180724;28;20569;-65
2023/11/20 04:49:07;;;;;;;8.13;1.88;;;11.80;99.90;;;;;;4143112;28;20041;-65
2023/11/20 04:51:07;;;;;;;5.57;1.48;;;11.80;99.90;;;;;;4176444;28;20033;-65
2023/11/20 04:53:08;;;;;;;8.85;2.20;;;11.90;99.90;;;;;;4181079;28;20035;-65
2023/11/20 04:55:09;;;;;;;11.98;2.47;;;11.90;99.90;;;;;;4162484;28;20045;-65
2023/11/20 04:57:10;;;;;;;8.13;1.98;;;11.80;99.90;;;;;;4173151;28;20041;-65
2023/11/20 04:59:10;;;;;;;8.27;1.70;;;11.80;99.90;;;;;;4169247;28;20511;-65
2023/11/20 05:01:11;;;;;;;12.43;2.58;;;11.80;99.90;;;;;;4173990;28;20086;-64
2023/11/20 05:03:12;;;;;;;6.57;1.80;;;11.80;99.90;;;;;;4166843;28;20499;-65
2023/11/20 05:05:13;;;;;;;10.73;2.40;;;11.80;99.90;;;;;;4163302;28;20037;-65
2023/11/20 05:07:13;;;;;;;11.02;1.63;;;11.80;99.90;;;;;;4155573;28;20040;-65
2023/11/20 05:09:16;;;;;;;9.90;2.10;;;11.80;99.90;;;;;;4172030;28;20466;-65
2023/11/20 05:11:17;;;;;;;7.30;1.88;;;11.80;99.90;;;;;;4166006;28;20037;-65
2023/11/20 05:13:17;;;;;;;7.72;2.28;;;11.80;99.90;;;;;;4167068;28;20044;-65
2023/11/20 05:15:18;;;;;;;8.75;1.95;;;11.80;99.90;;;;;;4172341;28;20029;-65
2023/11/20 05:17:20;;;;;;;9.35;2.00;;;11.80;99.90;;;;;;4174251;28;20044;-65
2023/11/20 05:19:20;;;;;;;6.47;1.80;;;11.80;99.90;;;;;;4173338;28;20037;-65
2023/11/20 05:21:21;;;;;;;6.43;2.00;;;11.80;99.90;;;;;;4172514;28;20140;-64
2023/11/20 05:23:22;;;;;;;6.38;1.90;;;11.80;99.90;;;;;;4169372;28;20049;-64
2023/11/20 05:25:22;;;;;;;8.65;1.73;;;11.80;99.90;;;;;;4165390;28;20041;-64
2023/11/20 05:27:24;;;;;;;5.63;1.50;;;11.80;99.90;;;;;;4169265;28;20139;-64
2023/11/20 05:29:24;;;;;;;7.05;1.83;;;11.80;99.90;;;;;;4174729;28;20044;-65
2023/11/20 05:31:25;;;;;;;7.03;1.55;;;11.90;99.90;;;;;;4161565;28;20041;-65
2023/11/20 05:33:26;;;;;;;8.30;2.10;;;11.80;99.90;;;;;;4172746;28;20045;-65
2023/11/20 05:35:27;;;;;;;8.82;2.22;;;11.80;99.90;;;;;;4184241;28;24723;-65
2023/11/20 05:37:28;;;;;;;5.72;1.88;;;11.80;99.90;;;;;;4169394;28;20159;-65
2023/11/20 05:39:29;;;;;;;4.20;1.50;;;11.80;99.90;;;;;;4177032;28;20041;-65
2023/11/20 05:41:29;;;;;;;7.05;1.70;;;11.80;99.90;;;;;;4178381;28;20080;-65
2023/11/20 05:43:30;;;;;;;6.13;1.67;;;11.80;99.90;;;;;;4134100;28;20048;-65
2023/11/20 05:45:30;;;;;;;9.52;2.55;;;11.80;99.90;;;;;;4164291;28;20047;-65
2023/11/20 05:47:31;;;;;;;6.93;2.00;;;11.80;99.90;;;;;;4156738;28;20541;-64
2023/11/20 05:49:32;;;;;;;7.47;2.28;;;11.80;99.90;;;;;;4173853;28;20163;-67
2023/11/20 05:51:32;;;;;;;8.38;2.72;;;11.80;99.90;;;;;;4166550;28;20040;-67
2023/11/20 05:53:33;;;;;;;10.80;2.65;;;11.80;99.90;;;;;;4176790;28;20051;-67
2023/11/20 05:55:34;;;;;;;11.18;2.83;;;11.80;99.90;;;;;;4180348;28;20021;-67
2023/11/20 05:57:34;;;;;;;8.00;2.30;;;11.80;99.90;;;;;;4179419;28;20033;-67
2023/11/20 05:59:35;;;;;;;9.43;2.20;;;11.80;99.90;;;;;;4170743;28;20140;-67
2023/11/20 06:01:39;;;;;;;5.85;2.33;;;11.80;99.90;;;;;;4177343;28;20116;-68
2023/11/20 06:03:40;;;;;;;16.02;2.83;;;11.70;99.90;;;;;;4167410;28;20114;-67
2023/11/20 06:05:41;;;;;;;17.08;3.13;;;11.80;99.90;;;;;;4175687;28;20263;-67
2023/11/20 06:07:41;;;;;;;16.77;3.85;;;11.70;99.90;;;;;;4175081;28;20032;-67
2023/11/20 06:09:42;;;;;;;15.02;3.13;;;11.70;99.90;;;;;;4165661;28;20124;-67
2023/11/20 06:11:48;;;;;;;11.68;2.90;;;11.70;99.90;;;;;;4175221;28;20037;-67
2023/11/20 06:13:49;;;;;;;9.77;2.78;;;11.70;99.90;;;;;;4171371;28;20033;-67
2023/11/20 06:15:50;;;;;;;13.98;3.50;;;11.70;99.90;;;;;;4175775;28;20116;-67
2023/11/20 06:17:50;;;;;;;15.32;3.40;;;11.70;99.90;;;;;;4176937;28;20122;-66
2023/11/20 06:19:51;;;;;;;8.68;2.78;;;11.70;99.90;;;;;;4157178;28;20709;-67
2023/11/20 06:21:52;;;;;;;12.10;2.95;;;11.70;99.90;;;;;;4172735;28;20044;-67
2023/11/20 06:23:55;;;;;;;14.93;3.45;;;11.70;99.90;;;;;;4175040;28;20048;-67
2023/11/20 06:25:55;;;;;;;13.25;2.80;;;11.70;99.90;;;;;;4158634;28;20041;-67
2023/11/20 06:27:56;;;;;;;11.55;2.67;;;11.70;99.90;;;;;;4170232;28;20052;-69
2023/11/20 06:29:56;;;;;;;11.98;2.78;;;11.70;99.90;;;;;;4132279;28;20087;-69
2023/11/20 06:31:57;;;;;;;10.43;3.10;;;11.70;99.90;;;;;;4154347;28;20039;-69
2023/11/20 06:33:57;;;;;;;11.00;2.63;;;11.70;99.90;;;;;;4151076;28;20492;-69
2023/11/20 06:35:58;;;;;;;14.75;3.15;;;11.70;99.90;;;;;;4164133;28;20048;-69
2023/11/20 06:37:59;;;;;;;10.82;2.90;;;11.70;99.90;;;;;;4164218;28;20040;-70
2023/11/20 06:39:59;;;;;;;11.15;3.03;;;11.70;99.90;;;;;;4179075;28;20048;-69
2023/11/20 06:42:00;;;;;;;11.05;3.15;;;11.70;99.90;;;;;;4180116;28;20096;-69
2023/11/20 06:44:01;;;;;;;12.10;2.85;;;11.70;99.90;;;;;;4166277;28;20050;-69
2023/11/20 06:46:02;;;;;;;16.40;3.35;;;11.70;99.90;;;;;;4168349;28;20036;-69
2023/11/20 06:48:03;;;;;;;14.27;3.30;;;11.70;99.90;;;;;;4142558;28;20045;-69
2023/11/20 06:50:04;;;;;;;20.25;3.58;;;11.70;99.90;;;;;;4128412;28;20041;-70
2023/11/20 06:52:05;;;;;;;10.85;2.83;;;11.70;99.90;;;;;;4159601;28;20397;-69
2023/11/20 06:54:06;;;;;;;10.82;3.03;;;11.70;99.90;;;;;;4153847;28;20057;-69
2023/11/20 06:56:27;;;;;;;14.13;3.17;;;11.70;99.90;;;;;;4170149;28;20033;-72
2023/11/20 06:58:28;;;;;;;12.70;2.90;;;11.70;99.90;;;;;;4141813;28;20039;-70
2023/11/20 07:00:28;;;;;;;14.85;3.13;;;11.70;99.90;;;;;;4148914;28;20163;-71
2023/11/20 07:02:30;;;;;;;21.60;3.22;;;11.70;99.90;;;;;;4151687;28;20029;-72
2023/11/20 07:04:37;;;;;;;15.50;3.17;;;11.70;99.90;;;;;;4167465;28;20473;-72
2023/11/20 07:06:42;;;;;;;11.55;3.28;;;11.70;99.90;;;;;;4159052;28;20037;-70
2023/11/20 07:08:43;;;;;;;13.27;3.17;;;11.60;99.90;;;;;;4175461;28;20457;-70
2023/11/20 07:10:44;;;;;;;25.58;4.18;;;11.60;99.90;;;;;;4179250;28;20051;-70
2023/11/20 07:12:44;;;;;;;15.88;3.17;;;11.60;99.90;;;;;;4175629;28;20120;-70
2023/11/20 07:14:45;;;;;;;15.85;3.53;;;11.50;99.90;;;;;;4177372;28;20033;-69
2023/11/20 07:16:45;;;;;;;11.23;2.90;;;11.50;99.90;;;;;;4177728;28;20500;-70
2023/11/20 07:18:48;;;;;;;17.08;3.58;;;11.50;99.90;;;;;;4177964;28;20037;-69
2023/11/20 07:20:49;;;;;;;17.08;3.85;;;11.50;99.90;;;;;;4177347;28;20057;-69
2023/11/20 07:22:49;;;;;;;16.25;2.97;;;11.40;99.90;;;;;;4171680;28;20068;-70
2023/11/20 07:24:50;;;;;;;9.57;2.55;;;11.40;99.90;;;;;;4173047;28;20041;-71
2023/11/20 07:26:51;;;;;;;12.00;3.03;;;11.50;99.90;;;;;;4173915;28;20032;-70
2023/11/20 07:28:52;;;;;;;17.95;3.60;;;11.40;99.90;;;;;;4178085;28;20130;-71
2023/11/20 07:30:52;;;;;;;15.40;2.92;;;11.40;99.90;;;;;;4178610;28;20507;-71
2023/11/20 07:32:55;;;;;;;14.23;3.40;;;11.50;99.90;;;;;;4174217;28;20033;-71
2023/11/20 07:34:55;;;;;;;17.73;3.08;;;11.40;99.90;;;;;;4168818;28;20064;-70
2023/11/20 07:36:56;;;;;;;17.05;3.40;;;11.50;99.90;;;;;;4178800;28;20040;-70
2023/11/20 07:38:56;;;;;;;12.50;2.85;;;11.40;99.90;;;;;;4173284;28;20082;-70
2023/11/20 07:41:02;;;;;;;17.70;3.15;;;11.40;99.90;;;;;;4156749;28;20037;-71
2023/11/20 07:43:02;;;;;;;9.48;2.80;;;11.50;99.90;;;;;;4156384;28;20060;-70
2023/11/20 07:45:03;;;;;;;14.38;3.30;;;11.50;99.90;;;;;;4154505;28;20498;-71
2023/11/20 07:47:04;;;;;;;13.02;2.97;;;11.50;99.90;;;;;;4174911;28;20036;-71
2023/11/20 07:49:04;;;;;;;9.50;2.70;;;11.50;99.90;;;;;;4173540;28;20029;-71
2023/11/20 07:51:05;;;;;;;11.02;3.15;;;11.50;99.90;;;;;;4173129;28;20028;-71
2023/11/20 07:53:06;;;;;;;7.88;2.50;;;11.50;99.90;;;;;;4169523;28;20079;-71
2023/11/20 07:55:08;;;;;;;9.77;2.42;;;11.50;99.90;;;;;;4168824;28;20055;-73
2023/11/20 07:57:11;;;;;;;13.98;2.53;;;11.50;99.90;;;;;;4179099;28;20033;-71
2023/11/20 07:59:12;;;;;;;15.73;3.22;;;11.50;99.90;;;;;;4173789;28;20029;-71
2023/11/20 08:01:13;;;;;;;14.63;2.58;;;11.50;99.90;;;;;;4177931;28;20028;-71
2023/11/20 08:03:14;;;;;;;13.98;2.95;;;11.40;99.90;;;;;;4177492;28;20041;-72
2023/11/20 08:05:18;;;;;;;17.35;3.00;;;11.50;99.90;;;;;;4176509;28;20037;-71
2023/11/20 08:07:19;;;;;;;12.07;2.95;;;11.50;99.90;;;;;;4176354;28;20037;-70
2023/11/20 08:09:20;;;;;;;9.07;2.40;;;11.50;99.90;;;;;;4177359;28;20033;-69
2023/11/20 08:11:20;;;;;;;11.40;3.35;;;11.50;99.90;;;;;;4177166;28;20040;-71
2023/11/20 08:13:21;;;;;;;10.80;2.75;;;11.60;99.90;;;;;;4177577;28;20037;-71
2023/11/20 08:15:22;;;;;;;13.52;2.78;;;11.80;99.90;;;;;;4176722;28;20497;-70
2023/11/20 08:17:22;;;;;;;9.70;2.60;;;12.00;99.90;;;;;;4177462;28;20035;-71
2023/11/20 08:19:24;;;;;;;13.13;2.83;;;12.20;99.90;;;;;;4176296;28;20036;-71
2023/11/20 08:21:24;;;;;;;10.82;2.67;;;12.40;99.90;;;;;;4173863;28;20033;-71
2023/11/20 08:23:25;;;;;;;15.65;3.28;;;12.60;99.90;;;;;;4174813;28;20496;-72
2023/11/20 08:25:25;;;;;;;13.68;3.13;;;12.50;99.90;;;;;;4174898;28;20546;-72
2023/11/20 08:27:26;;;;;;;16.77;3.72;;;12.60;99.90;;;;;;4165806;28;20504;-67
2023/11/20 08:29:27;;;;;;;10.77;2.83;;;12.70;99.90;;;;;;4155705;28;20031;-68
2023/11/20 08:31:28;;;;;;;12.85;2.70;;;12.80;99.90;;;;;;4167979;28;20428;-68
2023/11/20 08:33:29;;;;;;;9.18;2.13;;;13.00;99.90;;;;;;4175600;28;20036;-68
2023/11/20 08:35:29;;;;;;;17.90;3.03;;;13.20;99.90;;;;;;4148441;28;20091;-67
2023/11/20 08:37:30;;;;;;;13.13;2.97;;;13.20;99.90;;;;;;4174155;28;20159;-68
2023/11/20 08:39:35;;;;;;;12.30;2.78;;;13.40;99.90;;;;;;4173465;28;20481;-68
2023/11/20 08:41:36;;;;;;;12.43;2.97;;;13.30;99.90;;;;;;4173559;28;20469;-67
2023/11/20 08:43:36;;;;;;;10.23;2.70;;;13.20;99.90;;;;;;4174914;28;20048;-67
2023/11/20 08:45:37;;;;;;;8.63;2.50;;;13.10;99.90;;;;;;4173217;28;20033;-68
2023/11/20 08:47:39;;;;;;;17.15;3.30;;;13.00;99.90;;;;;;4174709;28;20088;-68
2023/11/20 08:49:41;;;;;;;8.33;1.90;;;13.00;99.90;;;;;;4172738;28;20068;-68
2023/11/20 08:51:42;;;;;;;13.20;2.80;;;13.10;99.90;;;;;;4171370;28;20033;-68
2023/11/20 08:53:42;;;;;;;9.05;2.53;;;13.00;99.90;;;;;;4172284;28;20071;-67
2023/11/20 08:55:43;;;;;;;9.80;2.35;;;13.00;99.90;;;;;;4173023;28;20115;-68
2023/11/20 08:57:44;;;;;;;10.68;2.60;;;13.00;99.90;;;;;;4176413;28;20066;-68
2023/11/20 08:59:44;;;;;;;17.40;3.67;;;13.00;99.90;;;;;;4175190;28;20377;-69
2023/11/20 09:01:47;;;;;;;15.48;2.92;;;13.00;99.90;;;;;;4175391;28;20032;-69
2023/11/20 09:03:48;;;;;;;18.13;2.90;;;13.00;99.90;;;;;;4175969;28;20107;-68
2023/11/20 09:05:49;;;;;;;17.58;3.50;;;13.00;99.90;;;;;;4174610;28;20420;-68
2023/11/20 09:07:49;;;;;;;12.63;2.67;;;13.00;99.90;;;;;;4177419;28;20040;-68
2023/11/20 09:09:50;;;;;;;20.45;2.85;;;13.00;99.90;;;;;;4174364;28;20408;-68
2023/11/20 09:11:51;;;;;;;15.07;3.60;;;13.00;99.90;;;;;;4165857;28;20044;-68
2023/11/20 09:13:52;;;;;;;10.25;2.78;;;13.00;99.90;;;;;;4175463;28;20067;-68
2023/11/20 09:15:53;;;;;;;8.43;2.00;;;13.00;99.90;;;;;;4175024;28;20025;-68
2023/11/20 09:17:54;;;;;;;13.75;2.35;;;13.00;99.90;;;;;;4175091;28;20033;-68
2023/11/20 09:19:54;;;;;;;11.40;2.70;;;13.10;99.90;;;;;;4172596;28;20041;-74
2023/11/20 09:21:55;;;;;;;13.70;3.05;;;13.20;99.90;;;;;;4176419;28;20397;-74
2023/11/20 09:23:57;;;;;;;17.65;2.88;;;13.20;99.90;;;;;;4178955;28;20041;-74
2023/11/20 09:25:58;;;;;;;11.77;2.95;;;13.10;99.90;;;;;;4192371;28;20043;-74
2023/11/20 09:27:59;;;;;;;16.45;3.72;;;13.10;99.90;;;;;;4182876;28;20048;-74
2023/11/20 09:30:00;;;;;;;13.25;2.95;;;13.00;99.90;;;;;;4171697;28;20041;-70
2023/11/20 09:32:02;;;;;;;9.70;2.67;;;12.90;99.90;;;;;;4178208;28;20033;-70
2023/11/20 09:34:03;;;;;;;12.95;2.90;;;13.00;99.90;;;;;;4178805;28;20071;-70
2023/11/20 09:36:05;;;;;;;12.15;2.95;;;12.90;99.90;;;;;;4163682;28;20047;-70
2023/11/20 09:38:06;;;;;;;10.60;2.65;;;12.90;99.90;;;;;;4175790;28;20033;-69
2023/11/20 09:40:07;;;;;;;11.88;2.78;;;12.80;99.90;;;;;;4142937;28;20040;-76
2023/11/20 09:42:10;;;;;;;8.93;2.53;;;12.80;99.90;;;;;;4154658;28;20392;-73
2023/11/20 09:44:12;;;;;;;11.50;2.30;;;12.70;99.90;;;;;;4173841;28;20507;-74
2023/11/20 09:46:15;;;;;;;12.93;2.90;;;12.60;99.90;;;;;;4177222;28;20508;-74
2023/11/20 09:48:15;;;;;;;;;;;12.70;99.90;;;;;;4178206;28;20040;-73
2023/11/20 09:50:17;;;;;;;10.20;2.35;;;12.70;99.90;;;;;;4172617;28;20002;-73
2023/11/20 09:52:18;;;;;;;9.15;2.30;;;12.60;99.90;;;;;;4174568;28;20396;-74
2023/11/20 09:54:19;;;;;;;9.18;2.35;;;12.50;99.90;;;;;;4175951;28;20111;-73
2023/11/20 09:56:20;;;;;;;10.98;2.17;;;12.60;99.90;;;;;;4176812;28;20037;-74
2023/11/20 09:58:21;;;;;;;8.90;1.90;;;12.60;99.90;;;;;;4155978;28;20111;-74
2023/11/20 10:00:24;;;;;;;11.70;2.38;;;12.60;99.90;;;;;;4169770;28;20041;-74
2023/11/20 10:02:28;;;;;;;16.65;2.58;;;12.60;99.90;;;;;;4173951;28;20498;-74
2023/11/20 10:04:33;;;;;;;7.03;2.13;;;12.50;99.90;;;;;;4183839;28;20044;-74
2023/11/20 10:06:35;;;;;;;7.00;2.13;;;12.50;99.90;;;;;;4178744;28;20350;-74
2023/11/20 10:08:40;;;;;;;6.30;1.75;;;12.60;99.90;;;;;;4173757;28;20082;-74
2023/11/20 10:10:41;;;;;;;7.18;2.38;;;12.60;99.90;;;;;;4158426;28;20086;-74
2023/11/20 10:12:43;;;;;;;6.90;1.65;;;12.60;99.90;;;;;;4180929;28;20115;-73
2023/11/20 10:14:45;;;;;;;8.77;2.60;;;12.60;99.90;;;;;;4183698;28;20163;-74
2023/11/20 10:16:47;;;;;;;6.07;1.42;;;12.50;99.90;;;;;;4176307;28;20464;-74
2023/11/20 10:18:48;;;;;;;6.45;1.92;;;12.50;99.90;;;;;;4176489;28;20033;-73
2023/11/20 10:20:50;;;;;;;10.00;2.13;;;12.50;99.90;;;;;;4174532;28;20039;-74
2023/11/20 10:22:50;;;;;;;9.93;2.75;;;12.50;99.90;;;;;;4157112;28;20033;-74
2023/11/20 10:24:51;;;;;;;10.52;3.05;;;12.50;99.90;;;;;;4103169;28;20512;-74
2023/11/20 10:26:53;;;;;;;9.65;2.38;;;12.40;99.90;;;;;;4167117;28;20460;-74